sensor_id;sensor_type;location;lat;lon;timestamp;temperature;humidity
5061;DHT22;2549;52.128;21.068;2022-10-16T00:00:55;17.50;99.90
5061;DHT22;2549;52.128;21.068;2022-10-16T00:03:22;17.40;99.90
5061;DHT22;2549;52.128;21.068;2022-10-16T00:05:59;17.50;99.90
5061;DHT22;2549;52.128;21.068;2022-10-16T00:08:26;17.50;99.90
5061;DHT22;2549;52.128;21.068;2022-10-16T00:11:08;17.50;99.90
5061;DHT22;2549;52.128;21.068;2022-10-16T00:13:36;17.50;99.90
5061;DHT22;2549;52.128;21.068;2022-10-16T00:16:04;17.50;99.90
5061;DHT22;2549;52.128;21.068;2022-10-16T00:18:31;17.50;99.90
5061;DHT22;2549;52.128;21.068;2022-10-16T00:21:05;17.40;99.90
5061;DHT22;2549;52.128;21.068;2022-10-16T00:23:33;17.40;99.90
5061;DHT22;2549;52.128;21.068;2022-10-16T00:26:02;17.40;99.90
5061;DHT22;2549;52.128;21.068;2022-10-16T00:28:30;17.40;99.90
5061;DHT22;2549;52.128;21.068;2022-10-16T00:30:58;17.40;99.90
5061;DHT22;2549;52.128;21.068;2022-10-16T00:33:25;17.40;99.90
5061;DHT22;2549;52.128;21.068;2022-10-16T00:35:51;17.40;99.90
5061;DHT22;2549;52.128;21.068;2022-10-16T00:38:18;17.40;99.90
5061;DHT22;2549;52.128;21.068;2022-10-16T00:40:45;17.40;99.90
5061;DHT22;2549;52.128;21.068;2022-10-16T00:43:35;17.30;99.90
5061;DHT22;2549;52.128;21.068;2022-10-16T00:46:08;17.30;99.90
5061;DHT22;2549;52.128;21.068;2022-10-16T00:48:37;17.40;99.90
5061;DHT22;2549;52.128;21.068;2022-10-16T00:51:04;17.40;99.90
5061;DHT22;2549;52.128;21.068;2022-10-16T00:53:33;17.40;99.90
5061;DHT22;2549;52.128;21.068;2022-10-16T00:56:00;17.40;99.90
5061;DHT22;2549;52.128;21.068;2022-10-16T00:58:28;17.40;99.90
5061;DHT22;2549;52.128;21.068;2022-10-16T01:00:54;17.40;99.90
5061;DHT22;2549;52.128;21.068;2022-10-16T01:03:25;17.40;99.90
5061;DHT22;2549;52.128;21.068;2022-10-16T01:12:06;17.30;99.90
5061;DHT22;2549;52.128;21.068;2022-10-16T01:17:12;17.30;99.90
5061;DHT22;2549;52.128;21.068;2022-10-16T01:19:58;17.30;99.90
5061;DHT22;2549;52.128;21.068;2022-10-16T01:22:43;17.30;99.90
5061;DHT22;2549;52.128;21.068;2022-10-16T01:25:24;17.30;99.90
5061;DHT22;2549;52.128;21.068;2022-10-16T01:27:52;17.30;99.90
5061;DHT22;2549;52.128;21.068;2022-10-16T01:30:28;17.30;99.90
5061;DHT22;2549;52.128;21.068;2022-10-16T01:33:01;17.30;99.90
5061;DHT22;2549;52.128;21.068;2022-10-16T01:35:41;17.30;99.90
5061;DHT22;2549;52.128;21.068;2022-10-16T01:38:14;17.30;99.90
5061;DHT22;2549;52.128;21.068;2022-10-16T01:40:47;17.30;99.90
5061;DHT22;2549;52.128;21.068;2022-10-16T01:43:19;17.30;99.90
5061;DHT22;2549;52.128;21.068;2022-10-16T01:45:48;17.30;99.90
5061;DHT22;2549;52.128;21.068;2022-10-16T01:48:18;17.30;99.90
5061;DHT22;2549;52.128;21.068;2022-10-16T01:50:55;17.30;99.90
5061;DHT22;2549;52.128;21.068;2022-10-16T01:53:24;17.30;99.90
5061;DHT22;2549;52.128;21.068;2022-10-16T01:55:52;17.30;99.90
5061;DHT22;2549;52.128;21.068;2022-10-16T01:58:21;17.20;99.90
5061;DHT22;2549;52.128;21.068;2022-10-16T02:00:49;17.20;99.90
5061;DHT22;2549;52.128;21.068;2022-10-16T02:03:19;17.20;99.90
5061;DHT22;2549;52.128;21.068;2022-10-16T02:05:52;17.20;99.90
5061;DHT22;2549;52.128;21.068;2022-10-16T02:08:22;17.20;99.90
5061;DHT22;2549;52.128;21.068;2022-10-16T02:10:50;17.20;99.90
5061;DHT22;2549;52.128;21.068;2022-10-16T02:13:22;17.20;99.90
5061;DHT22;2549;52.128;21.068;2022-10-16T02:15:50;17.10;99.90
5061;DHT22;2549;52.128;21.068;2022-10-16T02:18:17;17.10;99.90
5061;DHT22;2549;52.128;21.068;2022-10-16T02:20:59;17.10;99.90
5061;DHT22;2549;52.128;21.068;2022-10-16T02:26:15;17.10;99.90
5061;DHT22;2549;52.128;21.068;2022-10-16T02:28:50;17.10;99.90
5061;DHT22;2549;52.128;21.068;2022-10-16T02:31:26;17.10;99.90
5061;DHT22;2549;52.128;21.068;2022-10-16T02:33:57;17.10;99.90
5061;DHT22;2549;52.128;21.068;2022-10-16T02:36:26;17.10;99.90
5061;DHT22;2549;52.128;21.068;2022-10-16T02:38:53;17.10;99.90
5061;DHT22;2549;52.128;21.068;2022-10-16T02:41:22;17.10;99.90
5061;DHT22;2549;52.128;21.068;2022-10-16T02:43:49;17.00;99.90
5061;DHT22;2549;52.128;21.068;2022-10-16T02:46:17;17.00;99.90
5061;DHT22;2549;52.128;21.068;2022-10-16T02:48:45;17.10;99.90
5061;DHT22;2549;52.128;21.068;2022-10-16T02:51:35;17.00;99.90
5061;DHT22;2549;52.128;21.068;2022-10-16T02:54:02;17.00;99.90
5061;DHT22;2549;52.128;21.068;2022-10-16T02:56:29;17.00;99.90
5061;DHT22;2549;52.128;21.068;2022-10-16T02:58:57;17.00;99.90
5061;DHT22;2549;52.128;21.068;2022-10-16T03:01:24;17.00;99.90
5061;DHT22;2549;52.128;21.068;2022-10-16T03:03:51;17.10;99.90
5061;DHT22;2549;52.128;21.068;2022-10-16T03:06:18;17.10;99.90
5061;DHT22;2549;52.128;21.068;2022-10-16T03:08:45;17.00;99.90
5061;DHT22;2549;52.128;21.068;2022-10-16T03:11:12;17.10;99.90
5061;DHT22;2549;52.128;21.068;2022-10-16T03:13:38;17.10;99.90
5061;DHT22;2549;52.128;21.068;2022-10-16T03:16:05;17.10;99.90
5061;DHT22;2549;52.128;21.068;2022-10-16T03:18:32;17.10;99.90
5061;DHT22;2549;52.128;21.068;2022-10-16T03:20:59;17.10;99.90
5061;DHT22;2549;52.128;21.068;2022-10-16T03:23:26;17.10;99.90
5061;DHT22;2549;52.128;21.068;2022-10-16T03:25:53;17.10;99.90
5061;DHT22;2549;52.128;21.068;2022-10-16T03:28:20;17.10;99.90
5061;DHT22;2549;52.128;21.068;2022-10-16T03:30:47;17.10;99.90
5061;DHT22;2549;52.128;21.068;2022-10-16T03:33:14;17.10;99.90
5061;DHT22;2549;52.128;21.068;2022-10-16T03:35:41;17.10;99.90
5061;DHT22;2549;52.128;21.068;2022-10-16T03:38:08;17.10;99.90
5061;DHT22;2549;52.128;21.068;2022-10-16T03:40:35;17.10;99.90
5061;DHT22;2549;52.128;21.068;2022-10-16T03:43:01;17.10;99.90
5061;DHT22;2549;52.128;21.068;2022-10-16T03:45:28;17.10;99.90
5061;DHT22;2549;52.128;21.068;2022-10-16T03:47:55;17.10;99.90
5061;DHT22;2549;52.128;21.068;2022-10-16T03:50:22;17.10;99.90
5061;DHT22;2549;52.128;21.068;2022-10-16T03:52:49;17.10;99.90
5061;DHT22;2549;52.128;21.068;2022-10-16T03:55:15;17.10;99.90
5061;DHT22;2549;52.128;21.068;2022-10-16T03:57:42;17.10;99.90
5061;DHT22;2549;52.128;21.068;2022-10-16T04:00:10;17.10;99.90
5061;DHT22;2549;52.128;21.068;2022-10-16T04:02:37;17.10;99.90
5061;DHT22;2549;52.128;21.068;2022-10-16T04:05:04;17.10;99.90
5061;DHT22;2549;52.128;21.068;2022-10-16T04:07:31;17.10;99.90
5061;DHT22;2549;52.128;21.068;2022-10-16T04:09:58;17.10;99.90
5061;DHT22;2549;52.128;21.068;2022-10-16T04:12:26;17.10;99.90
5061;DHT22;2549;52.128;21.068;2022-10-16T04:14:53;17.10;99.90
5061;DHT22;2549;52.128;21.068;2022-10-16T04:17:20;17.10;99.90
5061;DHT22;2549;52.128;21.068;2022-10-16T04:19:47;17.10;99.90
5061;DHT22;2549;52.128;21.068;2022-10-16T04:22:13;17.00;99.90
5061;DHT22;2549;52.128;21.068;2022-10-16T04:24:40;17.00;99.90
5061;DHT22;2549;52.128;21.068;2022-10-16T04:27:07;17.00;99.90
5061;DHT22;2549;52.128;21.068;2022-10-16T04:29:34;17.00;99.90
5061;DHT22;2549;52.128;21.068;2022-10-16T04:32:01;17.00;99.90
5061;DHT22;2549;52.128;21.068;2022-10-16T04:34:28;17.00;99.90
5061;DHT22;2549;52.128;21.068;2022-10-16T04:36:54;17.00;99.90
5061;DHT22;2549;52.128;21.068;2022-10-16T04:39:21;17.00;99.90
5061;DHT22;2549;52.128;21.068;2022-10-16T04:41:48;17.00;99.90
5061;DHT22;2549;52.128;21.068;2022-10-16T04:44:15;17.00;99.90
5061;DHT22;2549;52.128;21.068;2022-10-16T04:46:42;17.00;99.90
5061;DHT22;2549;52.128;21.068;2022-10-16T04:49:08;17.00;99.90
5061;DHT22;2549;52.128;21.068;2022-10-16T04:51:35;17.00;99.90
5061;DHT22;2549;52.128;21.068;2022-10-16T04:54:02;16.90;99.90
5061;DHT22;2549;52.128;21.068;2022-10-16T04:56:29;16.90;99.90
5061;DHT22;2549;52.128;21.068;2022-10-16T04:58:56;16.90;99.90
5061;DHT22;2549;52.128;21.068;2022-10-16T05:01:23;16.90;99.90
5061;DHT22;2549;52.128;21.068;2022-10-16T05:03:50;16.90;99.90
5061;DHT22;2549;52.128;21.068;2022-10-16T05:06:16;16.80;99.90
5061;DHT22;2549;52.128;21.068;2022-10-16T05:08:43;16.80;99.90
5061;DHT22;2549;52.128;21.068;2022-10-16T05:11:10;16.80;99.90
5061;DHT22;2549;52.128;21.068;2022-10-16T05:13:37;16.80;99.90
5061;DHT22;2549;52.128;21.068;2022-10-16T05:16:04;16.70;99.90
5061;DHT22;2549;52.128;21.068;2022-10-16T05:18:31;16.70;99.90
5061;DHT22;2549;52.128;21.068;2022-10-16T05:20:58;16.70;99.90
5061;DHT22;2549;52.128;21.068;2022-10-16T05:23:24;16.70;99.90
5061;DHT22;2549;52.128;21.068;2022-10-16T05:25:55;16.70;99.90
5061;DHT22;2549;52.128;21.068;2022-10-16T05:28:29;16.70;99.90
5061;DHT22;2549;52.128;21.068;2022-10-16T05:30:57;16.70;99.90
5061;DHT22;2549;52.128;21.068;2022-10-16T05:33:25;16.70;99.90
5061;DHT22;2549;52.128;21.068;2022-10-16T05:35:52;16.70;99.90
5061;DHT22;2549;52.128;21.068;2022-10-16T05:38:19;16.60;99.90
5061;DHT22;2549;52.128;21.068;2022-10-16T05:40:52;16.60;99.90
5061;DHT22;2549;52.128;21.068;2022-10-16T05:43:20;16.60;99.90
5061;DHT22;2549;52.128;21.068;2022-10-16T05:46:05;16.60;99.90
5061;DHT22;2549;52.128;21.068;2022-10-16T05:48:32;16.60;99.90
5061;DHT22;2549;52.128;21.068;2022-10-16T05:51:02;16.60;99.90
5061;DHT22;2549;52.128;21.068;2022-10-16T05:53:31;16.60;99.90
5061;DHT22;2549;52.128;21.068;2022-10-16T05:55:59;16.60;99.90
5061;DHT22;2549;52.128;21.068;2022-10-16T05:58:29;16.60;99.90
5061;DHT22;2549;52.128;21.068;2022-10-16T06:01:04;16.50;99.90
5061;DHT22;2549;52.128;21.068;2022-10-16T06:03:32;16.50;99.90
5061;DHT22;2549;52.128;21.068;2022-10-16T06:06:07;16.50;99.90
5061;DHT22;2549;52.128;21.068;2022-10-16T06:08:38;16.50;99.90
5061;DHT22;2549;52.128;21.068;2022-10-16T06:11:08;16.50;99.90
5061;DHT22;2549;52.128;21.068;2022-10-16T06:13:35;16.50;99.90
5061;DHT22;2549;52.128;21.068;2022-10-16T06:16:03;16.50;99.90
5061;DHT22;2549;52.128;21.068;2022-10-16T06:18:30;16.50;99.90
5061;DHT22;2549;52.128;21.068;2022-10-16T06:20:57;16.50;99.90
5061;DHT22;2549;52.128;21.068;2022-10-16T06:23:25;16.50;99.90
5061;DHT22;2549;52.128;21.068;2022-10-16T06:25:52;16.50;99.90
5061;DHT22;2549;52.128;21.068;2022-10-16T06:28:19;16.50;99.90
5061;DHT22;2549;52.128;21.068;2022-10-16T06:30:46;16.60;99.90
5061;DHT22;2549;52.128;21.068;2022-10-16T06:33:13;16.60;99.90
5061;DHT22;2549;52.128;21.068;2022-10-16T06:35:42;16.60;99.90
5061;DHT22;2549;52.128;21.068;2022-10-16T06:38:08;16.60;99.90
5061;DHT22;2549;52.128;21.068;2022-10-16T06:40:35;16.60;99.90
5061;DHT22;2549;52.128;21.068;2022-10-16T06:43:05;16.60;99.90
5061;DHT22;2549;52.128;21.068;2022-10-16T06:45:32;16.60;99.90
5061;DHT22;2549;52.128;21.068;2022-10-16T06:47:59;16.60;99.90
5061;DHT22;2549;52.128;21.068;2022-10-16T06:50:26;16.60;99.90
5061;DHT22;2549;52.128;21.068;2022-10-16T06:52:52;16.60;99.90
5061;DHT22;2549;52.128;21.068;2022-10-16T06:55:19;16.70;99.90
5061;DHT22;2549;52.128;21.068;2022-10-16T06:57:47;16.70;99.90
5061;DHT22;2549;52.128;21.068;2022-10-16T07:00:15;16.70;99.90
5061;DHT22;2549;52.128;21.068;2022-10-16T07:02:42;16.70;99.90
5061;DHT22;2549;52.128;21.068;2022-10-16T07:05:09;16.80;99.90
5061;DHT22;2549;52.128;21.068;2022-10-16T07:07:35;16.80;99.90
5061;DHT22;2549;52.128;21.068;2022-10-16T07:10:02;16.80;99.90
5061;DHT22;2549;52.128;21.068;2022-10-16T07:12:29;16.90;99.90
5061;DHT22;2549;52.128;21.068;2022-10-16T07:14:56;16.90;99.90
5061;DHT22;2549;52.128;21.068;2022-10-16T07:17:23;17.00;99.90
5061;DHT22;2549;52.128;21.068;2022-10-16T07:19:50;17.10;99.90
5061;DHT22;2549;52.128;21.068;2022-10-16T07:22:19;17.10;99.90
5061;DHT22;2549;52.128;21.068;2022-10-16T07:24:46;17.10;99.90
5061;DHT22;2549;52.128;21.068;2022-10-16T07:27:18;17.20;99.90
5061;DHT22;2549;52.128;21.068;2022-10-16T07:29:45;17.20;99.90
5061;DHT22;2549;52.128;21.068;2022-10-16T07:32:11;17.30;99.90
5061;DHT22;2549;52.128;21.068;2022-10-16T07:34:38;17.30;99.90
5061;DHT22;2549;52.128;21.068;2022-10-16T07:37:06;17.30;99.90
5061;DHT22;2549;52.128;21.068;2022-10-16T07:39:32;17.30;99.90
5061;DHT22;2549;52.128;21.068;2022-10-16T07:42:00;17.30;99.90
5061;DHT22;2549;52.128;21.068;2022-10-16T07:44:26;17.40;99.90
5061;DHT22;2549;52.128;21.068;2022-10-16T07:46:53;17.40;99.90
5061;DHT22;2549;52.128;21.068;2022-10-16T07:49:20;17.40;99.90
5061;DHT22;2549;52.128;21.068;2022-10-16T07:51:47;17.40;99.90
5061;DHT22;2549;52.128;21.068;2022-10-16T07:54:14;17.40;99.90
5061;DHT22;2549;52.128;21.068;2022-10-16T07:56:41;17.40;99.90
5061;DHT22;2549;52.128;21.068;2022-10-16T07:59:10;17.50;99.90
5061;DHT22;2549;52.128;21.068;2022-10-16T08:01:37;17.50;99.90
5061;DHT22;2549;52.128;21.068;2022-10-16T08:04:05;17.50;99.90
5061;DHT22;2549;52.128;21.068;2022-10-16T08:06:36;17.50;99.90
5061;DHT22;2549;52.128;21.068;2022-10-16T08:09:03;17.60;99.90
5061;DHT22;2549;52.128;21.068;2022-10-16T08:11:30;17.70;99.90
5061;DHT22;2549;52.128;21.068;2022-10-16T08:13:57;17.70;99.90
5061;DHT22;2549;52.128;21.068;2022-10-16T08:16:24;17.70;99.90
5061;DHT22;2549;52.128;21.068;2022-10-16T08:18:51;17.80;99.90
5061;DHT22;2549;52.128;21.068;2022-10-16T08:21:20;17.80;99.90
5061;DHT22;2549;52.128;21.068;2022-10-16T08:23:52;17.80;99.90
5061;DHT22;2549;52.128;21.068;2022-10-16T08:26:24;17.80;99.90
5061;DHT22;2549;52.128;21.068;2022-10-16T08:28:51;17.90;99.90
5061;DHT22;2549;52.128;21.068;2022-10-16T08:31:19;18.00;99.90
5061;DHT22;2549;52.128;21.068;2022-10-16T08:33:46;18.00;99.90
5061;DHT22;2549;52.128;21.068;2022-10-16T08:36:15;18.10;99.90
5061;DHT22;2549;52.128;21.068;2022-10-16T08:38:42;18.10;99.90
5061;DHT22;2549;52.128;21.068;2022-10-16T08:41:28;18.10;99.90
5061;DHT22;2549;52.128;21.068;2022-10-16T08:44:24;18.20;99.90
5061;DHT22;2549;52.128;21.068;2022-10-16T08:49:27;18.40;99.90
5061;DHT22;2549;52.128;21.068;2022-10-16T08:51:55;18.40;99.90
5061;DHT22;2549;52.128;21.068;2022-10-16T08:54:45;18.40;99.90
5061;DHT22;2549;52.128;21.068;2022-10-16T08:57:17;18.50;99.90
5061;DHT22;2549;52.128;21.068;2022-10-16T08:59:49;18.50;99.90
5061;DHT22;2549;52.128;21.068;2022-10-16T09:02:36;18.50;99.90
5061;DHT22;2549;52.128;21.068;2022-10-16T09:10:43;18.60;99.90
5061;DHT22;2549;52.128;21.068;2022-10-16T09:13:30;18.60;99.90
5061;DHT22;2549;52.128;21.068;2022-10-16T09:21:19;18.60;99.90
5061;DHT22;2549;52.128;21.068;2022-10-16T09:23:48;18.60;99.90
5061;DHT22;2549;52.128;21.068;2022-10-16T09:26:16;18.60;99.90
5061;DHT22;2549;52.128;21.068;2022-10-16T09:28:44;18.60;99.90
5061;DHT22;2549;52.128;21.068;2022-10-16T09:31:16;18.70;99.90
5061;DHT22;2549;52.128;21.068;2022-10-16T09:33:47;18.80;99.90
5061;DHT22;2549;52.128;21.068;2022-10-16T09:36:15;18.80;99.90
5061;DHT22;2549;52.128;21.068;2022-10-16T09:38:42;18.80;99.90
5061;DHT22;2549;52.128;21.068;2022-10-16T09:41:20;18.90;99.90
5061;DHT22;2549;52.128;21.068;2022-10-16T09:44:00;18.90;99.90
5061;DHT22;2549;52.128;21.068;2022-10-16T09:46:35;19.00;99.90
5061;DHT22;2549;52.128;21.068;2022-10-16T09:49:18;19.10;99.90
5061;DHT22;2549;52.128;21.068;2022-10-16T09:51:46;19.10;99.90
5061;DHT22;2549;52.128;21.068;2022-10-16T09:54:19;19.20;99.90
5061;DHT22;2549;52.128;21.068;2022-10-16T09:56:46;19.20;99.90
5061;DHT22;2549;52.128;21.068;2022-10-16T09:59:20;19.30;99.90
5061;DHT22;2549;52.128;21.068;2022-10-16T10:01:51;19.40;99.90
5061;DHT22;2549;52.128;21.068;2022-10-16T10:04:20;19.40;99.90
5061;DHT22;2549;52.128;21.068;2022-10-16T10:06:52;19.40;99.90
5061;DHT22;2549;52.128;21.068;2022-10-16T10:09:38;19.40;99.90
5061;DHT22;2549;52.128;21.068;2022-10-16T10:12:26;19.50;99.90
5061;DHT22;2549;52.128;21.068;2022-10-16T10:15:13;19.50;99.90
5061;DHT22;2549;52.128;21.068;2022-10-16T10:17:55;19.50;99.90
5061;DHT22;2549;52.128;21.068;2022-10-16T10:22:49;19.70;99.90
5061;DHT22;2549;52.128;21.068;2022-10-16T10:36:39;19.90;99.90
5061;DHT22;2549;52.128;21.068;2022-10-16T10:39:27;19.90;99.90
5061;DHT22;2549;52.128;21.068;2022-10-16T10:45:16;20.00;99.90
5061;DHT22;2549;52.128;21.068;2022-10-16T10:48:05;20.10;99.90
5061;DHT22;2549;52.128;21.068;2022-10-16T10:50:48;20.10;99.90
5061;DHT22;2549;52.128;21.068;2022-10-16T10:53:36;20.10;99.90
5061;DHT22;2549;52.128;21.068;2022-10-16T10:56:28;20.20;99.90
5061;DHT22;2549;52.128;21.068;2022-10-16T10:59:25;20.30;99.90
5061;DHT22;2549;52.128;21.068;2022-10-16T11:01:58;20.40;99.90
5061;DHT22;2549;52.128;21.068;2022-10-16T11:07:30;20.50;99.90
5061;DHT22;2549;52.128;21.068;2022-10-16T11:10:17;20.50;99.90
5061;DHT22;2549;52.128;21.068;2022-10-16T11:12:55;20.50;99.90
5061;DHT22;2549;52.128;21.068;2022-10-16T11:15:35;20.60;99.90
5061;DHT22;2549;52.128;21.068;2022-10-16T11:26:41;20.70;99.90
5061;DHT22;2549;52.128;21.068;2022-10-16T11:29:26;20.70;99.90
5061;DHT22;2549;52.128;21.068;2022-10-16T11:31:58;20.70;99.90
5061;DHT22;2549;52.128;21.068;2022-10-16T11:34:38;20.70;99.90
5061;DHT22;2549;52.128;21.068;2022-10-16T11:37:40;20.70;99.90
5061;DHT22;2549;52.128;21.068;2022-10-16T11:40:35;20.80;99.90
5061;DHT22;2549;52.128;21.068;2022-10-16T11:43:15;20.70;99.90
5061;DHT22;2549;52.128;21.068;2022-10-16T11:45:52;20.70;99.90
5061;DHT22;2549;52.128;21.068;2022-10-16T11:53:53;20.80;99.90
5061;DHT22;2549;52.128;21.068;2022-10-16T11:56:23;20.70;99.90
5061;DHT22;2549;52.128;21.068;2022-10-16T11:59:28;20.80;99.90
5061;DHT22;2549;52.128;21.068;2022-10-16T12:02:35;20.80;99.90
5061;DHT22;2549;52.128;21.068;2022-10-16T12:04:48;20.80;99.90
5061;DHT22;2549;52.128;21.068;2022-10-16T12:07:23;20.80;99.90
5061;DHT22;2549;52.128;21.068;2022-10-16T12:09:53;20.80;99.90
5061;DHT22;2549;52.128;21.068;2022-10-16T12:12:42;20.90;99.90
5061;DHT22;2549;52.128;21.068;2022-10-16T12:18:23;20.90;99.90
5061;DHT22;2549;52.128;21.068;2022-10-16T12:20:57;21.00;99.90
5061;DHT22;2549;52.128;21.068;2022-10-16T12:23:38;21.00;99.90
5061;DHT22;2549;52.128;21.068;2022-10-16T12:26:06;21.00;99.90
5061;DHT22;2549;52.128;21.068;2022-10-16T12:28:33;21.10;99.90
5061;DHT22;2549;52.128;21.068;2022-10-16T12:31:05;21.10;99.90
5061;DHT22;2549;52.128;21.068;2022-10-16T12:33:35;21.10;99.90
5061;DHT22;2549;52.128;21.068;2022-10-16T12:36:16;21.10;99.90
5061;DHT22;2549;52.128;21.068;2022-10-16T12:38:53;21.00;99.90
5061;DHT22;2549;52.128;21.068;2022-10-16T12:41:34;21.00;99.90
5061;DHT22;2549;52.128;21.068;2022-10-16T12:44:02;21.00;99.90
5061;DHT22;2549;52.128;21.068;2022-10-16T12:51:55;21.10;99.90
5061;DHT22;2549;52.128;21.068;2022-10-16T12:54:37;21.00;99.90
5061;DHT22;2549;52.128;21.068;2022-10-16T13:14:17;21.40;99.90
5061;DHT22;2549;52.128;21.068;2022-10-16T13:17:29;21.40;99.90
5061;DHT22;2549;52.128;21.068;2022-10-16T13:28:02;21.50;99.90
5061;DHT22;2549;52.128;21.068;2022-10-16T13:30:31;21.40;99.90
5061;DHT22;2549;52.128;21.068;2022-10-16T13:33:23;21.40;99.90
5061;DHT22;2549;52.128;21.068;2022-10-16T13:36:06;21.40;99.90
5061;DHT22;2549;52.128;21.068;2022-10-16T13:38:35;21.40;99.90
5061;DHT22;2549;52.128;21.068;2022-10-16T13:41:04;21.40;99.90
5061;DHT22;2549;52.128;21.068;2022-10-16T13:43:37;21.40;99.90
5061;DHT22;2549;52.128;21.068;2022-10-16T13:46:25;21.30;99.90
5061;DHT22;2549;52.128;21.068;2022-10-16T13:48:57;21.40;99.90
5061;DHT22;2549;52.128;21.068;2022-10-16T13:51:27;21.30;99.90
5061;DHT22;2549;52.128;21.068;2022-10-16T13:53:55;21.30;99.90
5061;DHT22;2549;52.128;21.068;2022-10-16T13:56:28;21.20;99.90
5061;DHT22;2549;52.128;21.068;2022-10-16T13:59:04;21.20;99.90
5061;DHT22;2549;52.128;21.068;2022-10-16T14:01:35;21.20;99.90
5061;DHT22;2549;52.128;21.068;2022-10-16T14:04:09;21.20;99.90
5061;DHT22;2549;52.128;21.068;2022-10-16T14:06:41;21.20;99.90
5061;DHT22;2549;52.128;21.068;2022-10-16T14:09:23;21.30;99.90
5061;DHT22;2549;52.128;21.068;2022-10-16T14:12:02;21.20;99.90
5061;DHT22;2549;52.128;21.068;2022-10-16T14:14:41;21.30;99.90
5061;DHT22;2549;52.128;21.068;2022-10-16T14:17:25;21.20;99.90
5061;DHT22;2549;52.128;21.068;2022-10-16T14:19:57;21.20;99.90
5061;DHT22;2549;52.128;21.068;2022-10-16T14:22:35;21.20;99.90
5061;DHT22;2549;52.128;21.068;2022-10-16T14:25:29;21.20;99.90
5061;DHT22;2549;52.128;21.068;2022-10-16T14:28:22;21.20;99.90
5061;DHT22;2549;52.128;21.068;2022-10-16T14:38:31;21.10;99.90
5061;DHT22;2549;52.128;21.068;2022-10-16T14:40:59;21.10;99.90
5061;DHT22;2549;52.128;21.068;2022-10-16T14:46:02;21.10;99.90
5061;DHT22;2549;52.128;21.068;2022-10-16T14:48:30;21.20;99.90
5061;DHT22;2549;52.128;21.068;2022-10-16T14:50:57;21.10;99.90
5061;DHT22;2549;52.128;21.068;2022-10-16T14:53:24;21.20;99.90
5061;DHT22;2549;52.128;21.068;2022-10-16T14:55:50;21.20;99.90
5061;DHT22;2549;52.128;21.068;2022-10-16T14:58:21;21.20;99.90
5061;DHT22;2549;52.128;21.068;2022-10-16T15:00:48;21.20;99.90
5061;DHT22;2549;52.128;21.068;2022-10-16T15:03:15;21.20;99.90
5061;DHT22;2549;52.128;21.068;2022-10-16T15:05:42;21.10;99.90
5061;DHT22;2549;52.128;21.068;2022-10-16T15:08:09;21.20;99.90
5061;DHT22;2549;52.128;21.068;2022-10-16T15:10:43;21.20;99.90
5061;DHT22;2549;52.128;21.068;2022-10-16T15:13:14;21.10;99.90
5061;DHT22;2549;52.128;21.068;2022-10-16T15:15:45;21.10;99.90
5061;DHT22;2549;52.128;21.068;2022-10-16T15:18:13;21.10;99.90
5061;DHT22;2549;52.128;21.068;2022-10-16T15:20:41;21.00;99.90
5061;DHT22;2549;52.128;21.068;2022-10-16T15:23:19;21.00;99.90
5061;DHT22;2549;52.128;21.068;2022-10-16T15:25:51;21.00;99.90
5061;DHT22;2549;52.128;21.068;2022-10-16T15:28:19;21.00;99.90
5061;DHT22;2549;52.128;21.068;2022-10-16T15:30:48;20.90;99.90
5061;DHT22;2549;52.128;21.068;2022-10-16T15:33:18;20.90;99.90
5061;DHT22;2549;52.128;21.068;2022-10-16T15:35:50;20.90;99.90
5061;DHT22;2549;52.128;21.068;2022-10-16T15:38:19;20.90;99.90
5061;DHT22;2549;52.128;21.068;2022-10-16T15:40:47;20.90;99.90
5061;DHT22;2549;52.128;21.068;2022-10-16T15:43:14;20.80;99.90
5061;DHT22;2549;52.128;21.068;2022-10-16T15:45:41;20.80;99.90
5061;DHT22;2549;52.128;21.068;2022-10-16T15:48:12;20.80;99.90
5061;DHT22;2549;52.128;21.068;2022-10-16T15:50:40;20.80;99.90
5061;DHT22;2549;52.128;21.068;2022-10-16T15:53:13;20.80;99.90
5061;DHT22;2549;52.128;21.068;2022-10-16T15:55:40;20.80;99.90
5061;DHT22;2549;52.128;21.068;2022-10-16T15:58:07;20.80;99.90
5061;DHT22;2549;52.128;21.068;2022-10-16T16:00:34;20.80;99.90
5061;DHT22;2549;52.128;21.068;2022-10-16T16:03:00;20.80;99.90
5061;DHT22;2549;52.128;21.068;2022-10-16T16:05:28;20.80;99.90
5061;DHT22;2549;52.128;21.068;2022-10-16T16:07:56;20.80;99.90
5061;DHT22;2549;52.128;21.068;2022-10-16T16:10:23;20.70;99.90
5061;DHT22;2549;52.128;21.068;2022-10-16T16:12:50;20.80;99.90
5061;DHT22;2549;52.128;21.068;2022-10-16T16:15:21;20.70;99.90
5061;DHT22;2549;52.128;21.068;2022-10-16T16:17:48;20.80;99.90
5061;DHT22;2549;52.128;21.068;2022-10-16T16:20:15;20.70;99.90
5061;DHT22;2549;52.128;21.068;2022-10-16T16:22:42;20.70;99.90
5061;DHT22;2549;52.128;21.068;2022-10-16T16:25:09;20.70;99.90
5061;DHT22;2549;52.128;21.068;2022-10-16T16:27:36;20.80;99.90
5061;DHT22;2549;52.128;21.068;2022-10-16T16:30:11;20.70;99.90
5061;DHT22;2549;52.128;21.068;2022-10-16T16:32:45;20.70;99.90
5061;DHT22;2549;52.128;21.068;2022-10-16T16:35:12;20.70;99.90
5061;DHT22;2549;52.128;21.068;2022-10-16T16:37:39;20.70;99.90
5061;DHT22;2549;52.128;21.068;2022-10-16T16:40:05;20.70;99.90
5061;DHT22;2549;52.128;21.068;2022-10-16T16:42:32;20.70;99.90
5061;DHT22;2549;52.128;21.068;2022-10-16T16:44:59;20.70;99.90
5061;DHT22;2549;52.128;21.068;2022-10-16T16:47:26;20.70;99.90
5061;DHT22;2549;52.128;21.068;2022-10-16T16:49:53;20.70;99.90
5061;DHT22;2549;52.128;21.068;2022-10-16T16:52:20;20.60;99.90
5061;DHT22;2549;52.128;21.068;2022-10-16T16:54:48;20.60;99.90
5061;DHT22;2549;52.128;21.068;2022-10-16T16:57:19;20.60;99.90
5061;DHT22;2549;52.128;21.068;2022-10-16T16:59:46;20.50;99.90
5061;DHT22;2549;52.128;21.068;2022-10-16T17:02:13;20.50;99.90
5061;DHT22;2549;52.128;21.068;2022-10-16T17:04:40;20.50;99.90
5061;DHT22;2549;52.128;21.068;2022-10-16T17:07:07;20.50;99.90
5061;DHT22;2549;52.128;21.068;2022-10-16T17:09:34;20.50;99.90
5061;DHT22;2549;52.128;21.068;2022-10-16T17:12:01;20.40;99.90
5061;DHT22;2549;52.128;21.068;2022-10-16T17:14:28;20.40;99.90
5061;DHT22;2549;52.128;21.068;2022-10-16T17:16:55;20.40;99.90
5061;DHT22;2549;52.128;21.068;2022-10-16T17:19:22;20.40;99.90
5061;DHT22;2549;52.128;21.068;2022-10-16T17:21:49;20.40;99.90
5061;DHT22;2549;52.128;21.068;2022-10-16T17:24:17;20.40;99.90
5061;DHT22;2549;52.128;21.068;2022-10-16T17:26:45;20.30;99.90
5061;DHT22;2549;52.128;21.068;2022-10-16T17:29:15;20.30;99.90
5061;DHT22;2549;52.128;21.068;2022-10-16T17:31:44;20.30;99.90
5061;DHT22;2549;52.128;21.068;2022-10-16T17:34:11;20.30;99.90
5061;DHT22;2549;52.128;21.068;2022-10-16T17:36:39;20.30;99.90
5061;DHT22;2549;52.128;21.068;2022-10-16T17:39:14;20.30;99.90
5061;DHT22;2549;52.128;21.068;2022-10-16T17:41:43;20.20;99.90
5061;DHT22;2549;52.128;21.068;2022-10-16T17:44:11;20.20;99.90
5061;DHT22;2549;52.128;21.068;2022-10-16T17:46:51;20.20;99.90
5061;DHT22;2549;52.128;21.068;2022-10-16T17:49:19;20.20;99.90
5061;DHT22;2549;52.128;21.068;2022-10-16T17:51:49;20.20;99.90